createdAt,value
2022-12-19T00:00:09.730Z,43.85
2022-12-19T00:02:42.685Z,36.28
2022-12-19T00:05:11.377Z,38.25
2022-12-19T00:07:39.052Z,38.25
2022-12-19T00:10:07.943Z,34.78
2022-12-19T00:12:35.681Z,31.42
2022-12-19T00:15:03.479Z,42.40
2022-12-19T00:17:31.164Z,40.30
2022-12-19T00:19:58.863Z,38.03
2022-12-19T00:22:26.808Z,31.30
2022-12-19T00:24:54.484Z,38.88
2022-12-19T00:27:22.213Z,32.95
2022-12-19T00:29:49.877Z,40.10
2022-12-19T00:32:17.463Z,32.42
2022-12-19T00:34:45.089Z,35.85
2022-12-19T00:37:13.011Z,28.25
2022-12-19T00:39:40.697Z,36.65
2022-12-19T00:42:08.495Z,32.63
2022-12-19T00:44:36.156Z,29.75
2022-12-19T00:47:03.865Z,32.63
2022-12-19T00:49:31.530Z,36.55
2022-12-19T00:52:01.109Z,36.00
2022-12-19T00:54:28.774Z,40.80
2022-12-19T00:56:56.872Z,30.80
2022-12-19T00:59:26.723Z,32.97
2022-12-19T01:01:54.907Z,32.28
2022-12-19T01:04:31.708Z,35.92
2022-12-19T01:07:02.964Z,34.25
2022-12-19T01:09:31.839Z,31.23
2022-12-19T01:12:18.043Z,39.10
2022-12-19T01:14:46.003Z,36.28
2022-12-19T01:17:13.672Z,30.80
2022-12-19T01:19:44.370Z,37.50
2022-12-19T01:22:13.655Z,31.80
2022-12-19T01:24:42.327Z,37.80
2022-12-19T01:27:10.203Z,34.47
2022-12-19T01:29:52.839Z,37.53
2022-12-19T01:32:21.742Z,28.45
2022-12-19T01:34:49.463Z,32.50
2022-12-19T01:37:17.216Z,31.45
2022-12-19T01:39:46.022Z,34.03
2022-12-19T01:42:23.191Z,31.25
2022-12-19T01:45:33.393Z,34.33
2022-12-19T01:48:08.330Z,39.28
2022-12-19T01:50:44.273Z,31.08
2022-12-19T01:53:34.635Z,29.95
2022-12-19T01:56:10.144Z,39.60
2022-12-19T01:58:41.349Z,40.30
2022-12-19T02:01:09.173Z,32.38
2022-12-19T02:03:40.054Z,35.95
2022-12-19T02:06:09.453Z,38.38
2022-12-19T02:08:38.473Z,38.92
2022-12-19T02:11:06.287Z,43.00
2022-12-19T02:13:34.415Z,39.20
2022-12-19T02:16:49.089Z,30.12
2022-12-19T02:19:16.704Z,32.25
2022-12-19T02:21:54.959Z,40.90
2022-12-19T02:24:43.682Z,43.58
2022-12-19T02:27:48.766Z,43.75
2022-12-19T02:30:35.433Z,39.58
2022-12-19T02:33:04.915Z,33.03
2022-12-19T02:35:41.489Z,33.55
2022-12-19T02:38:33.115Z,29.05
2022-12-19T02:41:46.850Z,39.25
2022-12-19T02:44:21.527Z,33.50
2022-12-19T02:46:51.367Z,39.15
2022-12-19T02:49:21.865Z,39.67
2022-12-19T02:51:57.953Z,35.67
2022-12-19T02:54:26.481Z,27.70
2022-12-19T02:57:06.273Z,31.08
2022-12-19T03:00:03.355Z,40.55
2022-12-19T03:02:59.819Z,35.65
2022-12-19T03:05:48.431Z,28.85
2022-12-19T03:08:21.965Z,33.58
2022-12-19T03:11:09.858Z,33.72
2022-12-19T03:13:58.219Z,31.60
2022-12-19T03:16:26.692Z,31.02
2022-12-19T03:18:54.977Z,36.58
2022-12-19T03:21:35.878Z,35.45
2022-12-19T03:24:05.800Z,43.63
2022-12-19T03:26:38.908Z,35.63
2022-12-19T03:29:15.965Z,33.95
2022-12-19T03:31:46.294Z,27.20
2022-12-19T03:34:22.732Z,32.72
2022-12-19T03:36:57.168Z,31.90
2022-12-19T03:39:28.042Z,32.05
2022-12-19T03:42:16.271Z,32.78
2022-12-19T03:44:44.795Z,44.63
2022-12-19T03:47:30.319Z,43.63
2022-12-19T03:49:58.283Z,35.17
2022-12-19T03:52:31.919Z,33.35
2022-12-19T03:55:12.019Z,37.15
2022-12-19T03:58:05.611Z,34.63
2022-12-19T04:00:37.667Z,34.15
2022-12-19T04:03:06.797Z,29.63
2022-12-19T04:05:36.623Z,38.67
2022-12-19T04:08:08.848Z,31.58
2022-12-19T04:10:51.539Z,34.65
2022-12-19T04:13:24.866Z,33.65
2022-12-19T04:16:08.528Z,33.58
2022-12-19T04:18:37.553Z,35.35
2022-12-19T04:21:12.781Z,32.65
2022-12-19T04:23:46.486Z,34.22
2022-12-19T04:26:17.020Z,32.88
2022-12-19T04:28:51.931Z,34.92
2022-12-19T04:31:21.537Z,28.60
2022-12-19T04:33:49.452Z,30.48
2022-12-19T04:36:17.295Z,34.10
2022-12-19T04:38:45.221Z,33.17
2022-12-19T04:41:13.610Z,32.28
2022-12-19T04:43:41.316Z,32.58
2022-12-19T04:46:09.010Z,36.15
2022-12-19T04:48:38.078Z,33.72
2022-12-19T04:51:06.436Z,31.45
2022-12-19T04:53:34.365Z,32.47
2022-12-19T04:56:07.232Z,33.22
2022-12-19T04:58:36.099Z,34.22
2022-12-19T05:01:05.735Z,32.55
2022-12-19T05:03:34.300Z,32.53
2022-12-19T05:06:13.500Z,32.33
2022-12-19T05:08:43.700Z,26.33
2022-12-19T05:11:19.259Z,36.20
2022-12-19T05:13:47.736Z,31.65
2022-12-19T05:16:16.902Z,34.25
2022-12-19T05:18:45.294Z,31.37
2022-12-19T05:21:13.563Z,44.95
2022-12-19T05:23:41.591Z,36.83
2022-12-19T05:26:09.771Z,36.92
2022-12-19T05:28:37.544Z,36.22
2022-12-19T05:31:11.108Z,39.33
2022-12-19T05:33:39.510Z,35.97
2022-12-19T05:36:08.131Z,34.35
2022-12-19T05:38:36.571Z,33.92
2022-12-19T05:41:16.017Z,39.25
2022-12-19T05:43:50.578Z,42.35
2022-12-19T05:46:18.950Z,40.55
2022-12-19T05:48:47.106Z,41.70
2022-12-19T05:51:15.376Z,36.00
2022-12-19T05:53:44.458Z,49.38
2022-12-19T05:56:16.391Z,43.78
2022-12-19T05:58:45.983Z,45.30
2022-12-19T06:01:18.013Z,50.05
2022-12-19T06:03:46.294Z,38.67
2022-12-19T06:06:17.401Z,43.38
2022-12-19T06:08:45.524Z,33.55
2022-12-19T06:11:14.715Z,35.25
2022-12-19T06:13:42.754Z,42.75
2022-12-19T06:16:15.950Z,34.55
2022-12-19T06:18:45.780Z,39.22
2022-12-19T06:21:16.690Z,43.10
2022-12-19T06:23:44.996Z,49.13
2022-12-19T06:26:19.621Z,45.03
2022-12-19T06:28:49.720Z,50.03
2022-12-19T06:31:17.966Z,46.17
2022-12-19T06:33:46.041Z,48.58
2022-12-19T06:36:27.398Z,40.50
2022-12-19T06:38:57.113Z,46.75
2022-12-19T06:41:44.067Z,47.78
2022-12-19T06:44:14.723Z,47.28
2022-12-19T06:46:43.315Z,44.05
2022-12-19T06:49:12.305Z,51.92
2022-12-19T06:51:40.703Z,55.35
2022-12-19T06:54:08.459Z,50.78
2022-12-19T06:56:38.179Z,45.55
2022-12-19T06:59:06.897Z,46.60
2022-12-19T07:01:40.554Z,60.45
2022-12-19T07:04:12.206Z,62.25
2022-12-19T07:06:43.345Z,68.97
2022-12-19T07:09:13.780Z,61.37
2022-12-19T07:11:41.431Z,59.25
2022-12-19T07:14:09.112Z,58.40
2022-12-19T07:16:38.960Z,47.65
2022-12-19T07:19:08.896Z,58.55
2022-12-19T07:21:37.487Z,50.05
2022-12-19T07:24:06.320Z,54.13
2022-12-19T07:26:35.732Z,56.03
2022-12-19T07:29:03.740Z,54.20
2022-12-19T07:31:31.524Z,46.50
2022-12-19T07:33:59.742Z,53.85
2022-12-19T07:36:27.812Z,50.65
2022-12-19T07:38:55.564Z,54.42
2022-12-19T07:41:23.288Z,44.80
2022-12-19T07:43:51.021Z,58.40
2022-12-19T07:46:18.755Z,54.95
2022-12-19T07:48:46.453Z,53.47
2022-12-19T07:51:14.318Z,49.22
2022-12-19T07:53:41.977Z,60.70
2022-12-19T07:56:09.855Z,54.17
2022-12-19T07:58:37.466Z,51.53
2022-12-19T08:01:05.327Z,49.10
2022-12-19T08:03:34.754Z,52.60
2022-12-19T08:06:04.532Z,63.85
2022-12-19T08:08:32.782Z,56.20
2022-12-19T08:11:11.844Z,53.87
2022-12-19T08:13:46.140Z,47.47
2022-12-19T08:16:14.918Z,52.75
2022-12-19T08:18:42.841Z,61.33
2022-12-19T08:21:11.324Z,57.90
2022-12-19T08:23:42.287Z,53.58
2022-12-19T08:26:13.190Z,52.70
2022-12-19T08:28:41.095Z,58.20
2022-12-19T08:31:11.165Z,68.20
2022-12-19T08:33:39.630Z,70.87
2022-12-19T08:36:09.485Z,55.28
2022-12-19T08:38:38.165Z,65.97
2022-12-19T08:41:05.961Z,68.90
2022-12-19T08:43:34.920Z,68.95
2022-12-19T08:46:03.170Z,63.55
2022-12-19T08:48:31.975Z,58.90
2022-12-19T08:51:02.508Z,51.78
2022-12-19T08:53:32.196Z,58.47
2022-12-19T08:56:02.588Z,61.80
2022-12-19T08:58:31.471Z,59.70
2022-12-19T09:01:05.774Z,61.00
2022-12-19T09:03:51.273Z,49.58
2022-12-19T09:06:21.903Z,51.42
2022-12-19T09:08:49.721Z,52.17
2022-12-19T09:11:20.818Z,54.78
2022-12-19T09:13:49.572Z,53.35
2022-12-19T09:16:23.460Z,51.80
2022-12-19T09:18:56.209Z,55.00
2022-12-19T09:21:26.388Z,56.30
2022-12-19T09:23:57.322Z,50.90
2022-12-19T09:26:29.066Z,72.62
2022-12-19T09:29:02.263Z,54.38
2022-12-19T09:31:30.766Z,57.17
2022-12-19T09:33:58.793Z,57.62
2022-12-19T09:36:26.737Z,49.80
2022-12-19T09:38:56.927Z,52.05
2022-12-19T09:42:02.073Z,57.95
2022-12-19T09:44:32.701Z,48.87
2022-12-19T09:47:03.754Z,60.10
2022-12-19T09:49:41.969Z,56.22
2022-12-19T09:52:39.317Z,60.22
2022-12-19T09:55:29.530Z,53.97
2022-12-19T09:58:06.688Z,46.25
2022-12-19T10:00:43.368Z,46.72
2022-12-19T10:03:39.726Z,54.92
2022-12-19T10:07:20.388Z,66.25
2022-12-19T10:09:42.711Z,58.75
2022-12-19T10:12:45.063Z,50.70
2022-12-19T10:15:10.715Z,54.47
2022-12-19T10:17:56.919Z,62.35
2022-12-19T10:20:33.386Z,49.00
2022-12-19T10:23:22.847Z,55.38
2022-12-19T10:26:04.780Z,47.08
2022-12-19T10:28:47.296Z,53.05
2022-12-19T10:31:43.095Z,59.28
2022-12-19T10:34:21.431Z,59.38
2022-12-19T10:40:05.619Z,53.08
2022-12-19T10:42:56.424Z,56.78
2022-12-19T10:45:38.764Z,62.75
2022-12-19T10:48:14.421Z,61.03
2022-12-19T10:50:42.191Z,67.93
2022-12-19T10:53:14.615Z,57.95
2022-12-19T10:55:51.552Z,60.70
2022-12-19T10:58:23.976Z,61.58
2022-12-19T11:01:13.340Z,54.38
2022-12-19T11:03:44.226Z,53.97
2022-12-19T11:06:35.873Z,56.35
2022-12-19T11:09:24.570Z,53.10
2022-12-19T11:15:38.280Z,49.40
2022-12-19T11:20:02.735Z,59.38
2022-12-19T11:27:48.698Z,57.40
2022-12-19T11:29:34.132Z,58.08
2022-12-19T11:30:21.351Z,58.92
2022-12-19T11:30:35.711Z,51.90
2022-12-19T11:32:42.741Z,55.85
2022-12-19T11:35:17.810Z,52.88
2022-12-19T11:38:07.822Z,62.22
2022-12-19T11:40:51.461Z,60.63
2022-12-19T11:43:44.449Z,58.70
2022-12-19T11:46:23.786Z,54.95
2022-12-19T11:48:57.953Z,63.60
2022-12-19T11:51:25.585Z,59.10
2022-12-19T11:54:15.865Z,54.13
2022-12-19T11:56:43.822Z,58.97
2022-12-19T11:59:33.459Z,60.92
2022-12-19T12:02:01.243Z,51.85
2022-12-19T12:05:02.057Z,53.78
2022-12-19T12:09:09.530Z,45.85
2022-12-19T12:13:55.283Z,55.10
2022-12-19T12:22:27.863Z,51.80
2022-12-19T12:28:53.397Z,55.22
2022-12-19T12:31:10.258Z,53.20
2022-12-19T12:31:26.509Z,49.78
2022-12-19T12:31:53.300Z,48.55
2022-12-19T12:31:58.825Z,47.75
2022-12-19T12:35:30.666Z,45.97
2022-12-19T12:41:02.382Z,49.10
2022-12-19T12:44:08.999Z,48.13
2022-12-19T12:46:45.019Z,53.35
2022-12-19T12:49:41.586Z,54.17
2022-12-19T12:52:18.555Z,52.70
2022-12-19T12:54:49.947Z,54.67
2022-12-19T12:57:36.269Z,51.42
2022-12-19T13:00:31.594Z,50.78
2022-12-19T13:02:59.242Z,52.65
2022-12-19T13:05:39.137Z,52.42
2022-12-19T13:08:33.005Z,65.50
2022-12-19T13:11:04.431Z,52.83
2022-12-19T13:13:51.318Z,55.33
2022-12-19T13:16:46.936Z,51.65
2022-12-19T13:19:22.583Z,47.72
2022-12-19T13:22:24.069Z,48.55
2022-12-19T13:24:54.895Z,50.05
2022-12-19T13:27:22.640Z,53.75
2022-12-19T13:30:02.338Z,52.53
2022-12-19T13:32:42.252Z,53.40
2022-12-19T13:35:48.733Z,51.17
2022-12-19T13:40:01.588Z,45.70
2022-12-19T13:40:57.987Z,51.88
2022-12-19T13:43:47.135Z,54.63
2022-12-19T13:46:40.567Z,53.22
2022-12-19T13:49:34.707Z,48.03
2022-12-19T13:52:04.649Z,53.22
2022-12-19T13:54:37.768Z,53.40
2022-12-19T13:57:31.139Z,63.17
2022-12-19T14:00:03.033Z,51.70
2022-12-19T14:02:33.519Z,48.90
2022-12-19T14:06:16.873Z,50.67
2022-12-19T14:08:29.131Z,58.72
2022-12-19T14:11:46.787Z,44.33
2022-12-19T14:14:17.419Z,49.15
2022-12-19T14:16:47.560Z,51.60
2022-12-19T14:19:28.817Z,47.80
2022-12-19T14:22:15.645Z,50.95
2022-12-19T14:25:45.123Z,49.65
2022-12-19T14:28:21.684Z,49.40
2022-12-19T14:31:00.662Z,50.97
2022-12-19T14:33:44.124Z,57.08
2022-12-19T14:36:28.763Z,49.38
2022-12-19T14:39:25.381Z,49.28
2022-12-19T14:42:07.502Z,55.30
2022-12-19T14:52:26.182Z,46.95
2022-12-19T14:54:02.818Z,47.35
2022-12-19T14:54:17.435Z,44.00
2022-12-19T14:54:43.934Z,48.87
2022-12-19T14:56:33.652Z,60.20
2022-12-19T14:59:07.143Z,52.72
2022-12-19T15:01:36.824Z,50.97
2022-12-19T15:04:52.515Z,66.12
2022-12-19T15:07:14.314Z,51.97
2022-12-19T15:10:58.074Z,49.85
2022-12-19T15:14:50.608Z,48.45
2022-12-19T15:16:01.625Z,48.90
2022-12-19T15:18:43.497Z,47.70
2022-12-19T15:21:13.947Z,52.10
2022-12-19T15:23:42.017Z,51.97
2022-12-19T15:26:18.339Z,51.60
2022-12-19T15:28:54.614Z,60.20
2022-12-19T15:31:36.237Z,51.58
2022-12-19T15:34:36.819Z,54.30
2022-12-19T15:37:05.916Z,53.87
2022-12-19T15:39:33.640Z,46.28
2022-12-19T15:42:02.491Z,53.35
2022-12-19T15:44:32.841Z,65.15
2022-12-19T15:47:01.831Z,53.78
2022-12-19T15:49:29.611Z,48.72
2022-12-19T15:51:57.335Z,50.90
2022-12-19T15:57:22.100Z,57.88
2022-12-19T15:59:50.247Z,47.78
2022-12-19T16:02:23.407Z,46.20
2022-12-19T16:04:55.524Z,44.08
2022-12-19T16:07:27.813Z,48.58
2022-12-19T16:09:56.694Z,43.15
2022-12-19T16:12:37.813Z,42.70
2022-12-19T16:15:07.704Z,48.78
2022-12-19T16:17:35.452Z,42.47
2022-12-19T16:20:03.133Z,47.95
2022-12-19T16:22:31.052Z,48.58
2022-12-19T16:24:58.833Z,42.72
2022-12-19T16:27:31.885Z,43.50
2022-12-19T16:30:11.112Z,45.45
2022-12-19T16:32:41.262Z,39.67
2022-12-19T16:35:17.537Z,46.63
2022-12-19T16:37:52.085Z,42.55
2022-12-19T16:40:29.184Z,45.58
2022-12-19T16:43:29.858Z,39.42
2022-12-19T16:46:01.503Z,44.72
2022-12-19T16:48:31.208Z,45.65
2022-12-19T16:51:00.290Z,54.83
2022-12-19T16:53:28.171Z,54.67
2022-12-19T16:55:57.475Z,59.70
2022-12-19T16:58:28.936Z,56.42
2022-12-19T17:00:57.286Z,45.83
2022-12-19T17:03:42.233Z,49.78
2022-12-19T17:06:17.939Z,46.75
2022-12-19T17:08:46.578Z,45.03
2022-12-19T17:11:26.409Z,43.55
2022-12-19T17:14:01.674Z,50.53
2022-12-19T17:16:30.976Z,45.95
2022-12-19T17:19:00.178Z,43.55
2022-12-19T17:21:27.923Z,43.00
2022-12-19T17:23:55.721Z,39.60
2022-12-19T17:26:23.408Z,38.22
2022-12-19T17:28:51.146Z,50.03
2022-12-19T17:31:29.251Z,44.50
2022-12-19T17:33:58.897Z,39.05
2022-12-19T17:36:34.745Z,42.50
2022-12-19T17:39:18.764Z,49.17
2022-12-19T17:41:46.488Z,40.45
2022-12-19T17:44:14.198Z,37.17
2022-12-19T17:46:42.061Z,43.42
2022-12-19T17:49:39.688Z,39.47
2022-12-19T17:52:17.862Z,39.25
2022-12-19T17:54:46.149Z,41.45
2022-12-19T17:57:16.492Z,40.28
2022-12-19T17:59:44.638Z,40.80
2022-12-19T18:02:23.910Z,41.25
2022-12-19T18:04:52.335Z,40.53
2022-12-19T18:07:20.461Z,45.88
2022-12-19T18:09:49.764Z,43.97
2022-12-19T18:12:17.696Z,49.85
2022-12-19T18:14:45.476Z,38.67
2022-12-19T18:17:14.896Z,48.72
2022-12-19T18:19:42.669Z,41.72
2022-12-19T18:22:14.644Z,43.03
2022-12-19T18:24:42.970Z,45.28
2022-12-19T18:27:10.620Z,42.95
2022-12-19T18:29:38.343Z,41.08
2022-12-19T18:32:06.204Z,47.70
2022-12-19T18:34:34.732Z,41.37
2022-12-19T18:37:03.261Z,49.63
2022-12-19T18:39:33.067Z,44.35
2022-12-19T18:42:00.667Z,48.13
2022-12-19T18:44:28.555Z,61.03
2022-12-19T18:46:56.331Z,48.38
2022-12-19T18:49:24.143Z,46.10
2022-12-19T18:51:51.868Z,59.17
2022-12-19T18:54:22.502Z,47.50
2022-12-19T18:56:50.305Z,53.58
2022-12-19T18:59:18.176Z,50.35
2022-12-19T19:01:48.187Z,46.53
2022-12-19T19:04:18.766Z,51.72
2022-12-19T19:06:51.649Z,52.20
2022-12-19T19:09:21.567Z,52.47
2022-12-19T19:11:49.606Z,36.88
2022-12-19T19:14:17.362Z,54.38
2022-12-19T19:16:45.166Z,58.45
2022-12-19T19:19:18.875Z,43.10
2022-12-19T19:21:46.793Z,42.05
2022-12-19T19:24:22.846Z,44.05
2022-12-19T19:26:50.783Z,39.47
2022-12-19T19:29:20.835Z,46.67
2022-12-19T19:31:51.174Z,45.30
2022-12-19T19:34:29.863Z,43.03
2022-12-19T19:37:02.056Z,50.03
2022-12-19T19:39:34.399Z,50.33
2022-12-19T19:42:02.658Z,49.13
2022-12-19T19:44:31.175Z,60.55
2022-12-19T19:46:59.101Z,42.08
2022-12-19T19:49:26.929Z,52.45
2022-12-19T19:52:00.497Z,47.62
2022-12-19T19:54:30.335Z,53.53
2022-12-19T19:57:01.040Z,46.42
2022-12-19T19:59:32.416Z,48.35
2022-12-19T20:02:00.349Z,46.45
2022-12-19T20:04:28.234Z,65.60
2022-12-19T20:06:56.024Z,54.15
2022-12-19T20:09:23.691Z,54.10
2022-12-19T20:11:51.334Z,45.97
2022-12-19T20:14:19.054Z,63.08
2022-12-19T20:16:46.782Z,67.22
2022-12-19T20:19:16.745Z,51.28
2022-12-19T20:21:44.635Z,41.45
2022-12-19T20:24:13.849Z,56.20
2022-12-19T20:26:41.671Z,53.80
2022-12-19T20:29:09.611Z,47.30
2022-12-19T20:31:37.414Z,49.05
2022-12-19T20:34:05.931Z,45.78
2022-12-19T20:36:34.682Z,44.42
2022-12-19T20:39:02.494Z,47.45
2022-12-19T20:41:30.159Z,43.55
2022-12-19T20:43:58.521Z,48.10
2022-12-19T20:46:26.328Z,46.80
2022-12-19T20:48:54.127Z,40.40
2022-12-19T20:51:23.082Z,48.03
2022-12-19T20:53:54.770Z,65.50
2022-12-19T20:56:24.520Z,58.10
2022-12-19T20:58:52.730Z,59.55
2022-12-19T21:01:22.744Z,62.62
2022-12-19T21:03:51.789Z,45.80
2022-12-19T21:06:21.747Z,67.28
2022-12-19T21:08:49.796Z,51.92
2022-12-19T21:11:17.594Z,50.92
2022-12-19T21:13:45.641Z,50.33
2022-12-19T21:16:16.717Z,75.25
2022-12-19T21:18:46.080Z,68.37
2022-12-19T21:21:17.960Z,80.60
2022-12-19T21:23:46.921Z,109.72
2022-12-19T21:26:14.890Z,86.28
2022-12-19T21:28:43.187Z,80.25
2022-12-19T21:31:20.986Z,97.00
2022-12-19T21:33:49.406Z,71.07
2022-12-19T21:36:22.635Z,94.50
2022-12-19T21:38:52.870Z,96.85
2022-12-19T21:41:20.915Z,105.95
2022-12-19T21:43:52.824Z,76.55
2022-12-19T21:46:22.934Z,95.07
2022-12-19T21:48:52.379Z,113.47
2022-12-19T21:51:22.517Z,102.00
2022-12-19T21:53:55.219Z,83.85
2022-12-19T21:56:29.878Z,79.60
2022-12-19T21:59:03.412Z,89.78
2022-12-19T22:01:32.128Z,77.95
2022-12-19T22:04:08.693Z,71.43
2022-12-19T22:06:38.385Z,67.82
2022-12-19T22:09:08.433Z,87.22
2022-12-19T22:11:37.426Z,65.60
2022-12-19T22:14:06.199Z,66.20
2022-12-19T22:16:35.009Z,67.32
2022-12-19T22:19:03.625Z,63.80
2022-12-19T22:21:32.297Z,98.72
2022-12-19T22:24:01.490Z,52.60
2022-12-19T22:26:31.195Z,85.38
2022-12-19T22:28:59.867Z,75.53
2022-12-19T22:31:33.647Z,70.57
2022-12-19T22:34:11.386Z,70.60
2022-12-19T22:36:40.958Z,72.57
2022-12-19T22:39:12.115Z,78.07
2022-12-19T22:41:41.286Z,61.03
2022-12-19T22:44:15.632Z,57.72
2022-12-19T22:46:43.720Z,110.75
2022-12-19T22:49:13.322Z,65.55
2022-12-19T22:51:41.522Z,65.90
2022-12-19T22:54:10.141Z,69.10
2022-12-19T22:56:38.663Z,57.83
2022-12-19T22:59:08.814Z,68.45
2022-12-19T23:01:39.759Z,67.40
2022-12-19T23:04:09.524Z,78.43
2022-12-19T23:06:38.738Z,95.35
2022-12-19T23:09:08.204Z,64.72
2022-12-19T23:11:39.466Z,64.28
2022-12-19T23:14:09.089Z,105.30
2022-12-19T23:16:36.820Z,114.15
2022-12-19T23:19:06.372Z,56.10
2022-12-19T23:21:34.126Z,97.70
2022-12-19T23:24:01.915Z,57.92
2022-12-19T23:26:35.617Z,77.07
2022-12-19T23:29:06.487Z,70.30
2022-12-19T23:31:34.956Z,61.70
2022-12-19T23:34:03.192Z,68.47
2022-12-19T23:39:18.921Z,99.87
2022-12-19T23:41:46.625Z,69.55
2022-12-19T23:44:14.493Z,89.07
2022-12-19T23:46:42.478Z,57.72
2022-12-19T23:49:10.152Z,88.85
2022-12-19T23:51:37.869Z,144.00
2022-12-19T23:54:05.716Z,90.10
2022-12-19T23:56:33.745Z,87.03
2022-12-19T23:59:02.400Z,60.28
